Time;durP1;ratioP1;P1;durP2;ratioP2;P2;SDS_P1;SDS_P2;PMS_P1;PMS_P2;Temp;Humidity;BMP_temperature;BMP_pressure;BME280_temperature;BME280_humidity;BME280_pressure;Samples;Min_cycle;Max_cycle;Signal;HPM_P1;HPM_P2
2023/02/20 00:00:09;;;;;;;15.70;11.10;;;;;;;8.75;48.34;94176.88;4972582;28;20043;-78
2023/02/20 00:02:35;;;;;;;15.88;11.48;;;;;;;8.58;48.85;94172.91;4974070;28;20088;-76
2023/02/20 00:05:00;;;;;;;15.93;11.88;;;;;;;8.50;48.86;94157.69;4970547;28;20404;-76
2023/02/20 00:07:26;;;;;;;15.43;10.85;;;;;;;8.32;49.08;94139.94;4974795;28;20065;-77
2023/02/20 00:09:51;;;;;;;14.95;11.50;;;;;;;8.44;49.14;94163.34;4970920;28;20018;-76
2023/02/20 00:12:16;;;;;;;16.92;11.75;;;;;;;8.04;50.25;94156.84;4976118;28;20157;-75
2023/02/20 00:14:42;;;;;;;17.77;12.25;;;;;;;7.99;50.70;94149.75;4976540;28;20690;-77
2023/02/20 00:17:07;;;;;;;16.08;11.88;;;;;;;8.03;51.03;94153.38;4977475;28;20500;-77
2023/02/20 00:19:32;;;;;;;17.05;12.18;;;;;;;7.91;51.58;94162.88;4976287;28;20043;-79
2023/02/20 00:21:58;;;;;;;18.50;10.93;;;;;;;7.73;51.67;94145.13;4975641;28;20435;-78
2023/02/20 00:24:23;;;;;;;18.80;11.88;;;;;;;7.61;52.50;94138.38;4973689;28;20035;-78
2023/02/20 00:26:51;;;;;;;16.40;13.25;;;;;;;7.36;52.57;94128.13;4976734;28;20042;-78
2023/02/20 00:29:22;;;;;;;16.08;10.93;;;;;;;7.54;52.90;94167.03;4976794;28;20030;-78
2023/02/20 00:31:55;;;;;;;16.20;11.30;;;;;;;7.58;52.96;94162.75;4977153;28;20481;-78
2023/02/20 00:34:23;;;;;;;14.85;11.63;;;;;;;7.54;53.11;94167.03;4976561;28;20022;-78
2023/02/20 00:36:48;;;;;;;18.45;11.45;;;;;;;7.48;52.91;94146.22;4975712;28;20710;-77
2023/02/20 00:39:13;;;;;;;17.25;11.05;;;;;;;7.57;52.38;94137.38;4976255;28;20070;-78
2023/02/20 00:41:39;;;;;;;12.98;10.45;;;;;;;7.86;51.78;94133.81;4976310;28;20043;-77
2023/02/20 00:44:04;;;;;;;16.20;11.15;;;;;;;7.79;51.56;94120.13;4976102;28;20161;-77
2023/02/20 00:46:29;;;;;;;14.02;10.48;;;;;;;7.95;51.21;94140.03;4975963;28;20496;-77
2023/02/20 00:48:55;;;;;;;13.52;9.55;;;;;;;7.87;50.80;94130.09;4973829;28;20057;-77
2023/02/20 00:51:20;;;;;;;12.27;8.35;;;;;;;7.92;50.47;94145.91;4976337;28;20042;-78
2023/02/20 00:53:46;;;;;;;11.57;7.57;;;;;;;8.01;49.66;94157.41;4976049;28;20577;-77
2023/02/20 00:56:11;;;;;;;11.05;8.80;;;;;;;7.89;50.06;94172.94;4975287;28;20588;-77
2023/02/20 00:58:37;;;;;;;11.45;7.07;;;;;;;7.91;49.02;94149.63;4974050;28;20407;-77
2023/02/20 01:01:02;;;;;;;10.05;7.25;;;;;;;8.12;47.89;94153.50;4975724;28;20601;-77
2023/02/20 01:03:27;;;;;;;8.57;6.57;;;;;;;8.18;47.81;94157.66;4972487;28;20038;-77
2023/02/20 01:05:53;;;;;;;8.68;6.55;;;;;;;8.22;47.93;94163.19;4976188;28;20027;-78
2023/02/20 01:08:20;;;;;;;12.85;8.70;;;;;;;8.15;48.58;94161.69;4971433;28;20552;-77
2023/02/20 01:10:45;;;;;;;13.65;9.13;;;;;;;8.18;49.12;94192.09;5006298;28;20061;-77
2023/02/20 01:13:11;;;;;;;17.42;10.32;;;;;;;8.11;50.04;94197.78;4971406;28;20111;-78
2023/02/20 01:15:36;;;;;;;17.00;10.45;;;;;;;7.89;51.00;94194.13;4968365;28;20537;-77
2023/02/20 01:18:04;;;;;;;15.50;10.20;;;;;;;7.76;51.59;94178.97;4974676;28;20038;-77
2023/02/20 01:20:30;;;;;;;14.52;10.38;;;;;;;7.79;51.89;94199.56;4972072;28;20042;-78
2023/02/20 01:22:58;;;;;;;16.65;10.73;;;;;;;7.58;52.84;94197.16;4975012;28;20101;-76
2023/02/20 01:25:23;;;;;;;15.65;11.07;;;;;;;7.37;53.31;94176.53;4977195;28;20036;-77
2023/02/20 01:27:49;;;;;;;16.85;12.50;;;;;;;7.41;53.64;94188.91;4973258;28;20026;-77
2023/02/20 01:30:14;;;;;;;17.75;13.27;;;;;;;7.40;54.05;94189.97;4972785;28;20429;-78
2023/02/20 01:32:40;;;;;;;15.77;11.90;;;;;;;7.58;53.88;94199.78;4977326;28;20858;-77
2023/02/20 01:35:06;;;;;;;16.02;11.68;;;;;;;7.63;53.51;94191.78;4972596;28;20639;-78
2023/02/20 01:37:31;;;;;;;17.40;10.98;;;;;;;7.81;53.19;94202.72;4973807;28;20035;-78
2023/02/20 01:39:57;;;;;;;15.60;10.93;;;;;;;7.86;53.13;94210.59;4973719;28;20449;-76
2023/02/20 01:42:24;;;;;;;18.02;12.38;;;;;;;8.00;52.90;94227.34;4974596;28;20039;-75
2023/02/20 01:44:50;;;;;;;15.55;11.05;;;;;;;8.12;52.65;94230.34;4973959;28;20408;-76
2023/02/20 01:47:18;;;;;;;15.70;10.95;;;;;;;8.12;52.58;94225.84;4974234;28;20041;-76
2023/02/20 01:49:50;;;;;;;17.50;12.82;;;;;;;7.89;53.59;94236.50;4983724;28;20137;-78
2023/02/20 01:52:28;;;;;;;18.92;12.48;;;;;;;7.73;54.58;94222.66;4971992;28;20565;-78
2023/02/20 01:55:00;;;;;;;23.48;13.07;;;;;;;7.53;55.15;94221.03;4976810;28;20381;-78
2023/02/20 01:57:29;;;;;;;18.42;12.40;;;;;;;7.37;55.50;94197.69;4974582;28;20038;-78
2023/02/20 01:59:59;;;;;;;18.10;11.65;;;;;;;7.45;55.49;94229.63;4975480;28;20093;-78
2023/02/20 02:02:29;;;;;;;17.63;11.95;;;;;;;7.48;55.38;94218.47;4974748;28;20038;-78
2023/02/20 02:04:55;;;;;;;13.93;10.52;;;;;;;7.37;55.12;94224.97;4974329;28;20042;-78
2023/02/20 02:07:21;;;;;;;14.52;10.70;;;;;;;7.44;55.57;94257.13;4975795;28;20349;-76
2023/02/20 02:09:54;;;;;;;11.10;9.88;;;;;;;7.33;55.61;94245.13;4974733;28;20458;-78
2023/02/20 02:12:21;;;;;;;10.05;7.93;;;;;;;7.13;54.86;94240.03;4975044;28;20031;-77
2023/02/20 02:14:46;;;;;;;9.35;7.18;;;;;;;7.33;54.67;94254.91;4972471;28;20046;-76
2023/02/20 02:18:03;;;;;;;7.93;5.57;;;;;;;7.25;54.29;94243.06;4976392;28;20553;-76
2023/02/20 02:20:53;;;;;;;6.95;6.07;;;;;;;7.34;54.21;94241.38;4958451;28;20046;-78
2023/02/20 02:23:37;;;;;;;10.60;7.32;;;;;;;7.38;54.35;94242.41;4973371;28;20093;-77
2023/02/20 02:26:27;;;;;;;6.78;5.47;;;;;;;7.12;54.18;94244.53;4972456;28;20050;-77
2023/02/20 02:29:02;;;;;;;7.38;5.32;;;;;;;7.16;54.08;94239.47;4976039;28;20093;-77
2023/02/20 02:31:55;;;;;;;5.63;4.37;;;;;;;7.15;54.10;94249.25;4964164;28;20038;-77
2023/02/20 02:34:35;;;;;;;4.68;4.20;;;;;;;7.05;54.44;94251.22;4971961;28;20264;-78
2023/02/20 02:37:25;;;;;;;4.65;3.60;;;;;;;6.95;53.84;94256.59;4976409;28;20076;-77
2023/02/20 02:40:02;;;;;;;5.07;2.83;;;;;;;6.45;53.79;94221.66;4971409;28;20056;-77
2023/02/20 02:42:44;;;;;;;5.55;3.85;;;;;;;6.30;54.45;94237.59;4970982;28;20104;-77
2023/02/20 02:45:18;;;;;;;3.88;3.17;;;;;;;6.45;54.22;94258.63;4973972;28;20039;-77
2023/02/20 02:48:17;;;;;;;4.05;3.40;;;;;;;6.30;54.05;94233.13;4973535;28;20042;-77
2023/02/20 02:50:45;;;;;;;3.92;2.72;;;;;;;6.28;54.59;94250.28;4964304;28;20042;-77
2023/02/20 02:53:12;;;;;;;3.85;2.50;;;;;;;6.28;54.78;94256.38;4975889;28;20762;-78
2023/02/20 02:55:38;;;;;;;3.42;2.75;;;;;;;6.48;54.69;94265.22;4973189;28;20065;-77
2023/02/20 02:58:04;;;;;;;3.03;2.63;;;;;;;6.41;54.61;94260.22;4975760;28;20133;-77
2023/02/20 03:00:42;;;;;;;5.03;2.58;;;;;;;6.16;55.24;94252.50;4965324;28;20141;-78
2023/02/20 03:03:14;;;;;;;4.45;3.30;;;;;;;6.14;55.43;94255.38;4973607;28;20038;-77
2023/02/20 03:05:55;;;;;;;3.67;2.75;;;;;;;6.24;55.05;94259.84;4972794;28;20423;-77
2023/02/20 03:08:30;;;;;;;4.78;2.78;;;;;;;6.14;55.09;94255.38;4972475;28;20049;-77
2023/02/20 03:11:19;;;;;;;3.53;2.63;;;;;;;6.15;55.39;94256.16;4975759;28;20450;-77
2023/02/20 03:17:17;;;;;;;3.33;2.90;;;;;;;6.17;55.44;94261.97;4974898;28;20080;-77
2023/02/20 03:19:48;;;;;;;3.03;2.58;;;;;;;6.15;55.63;94272.81;4971745;28;20409;-77
2023/02/20 03:22:35;;;;;;;11.25;4.00;;;;;;;6.09;55.82;94273.09;4962172;28;20049;-77
2023/02/20 03:25:21;;;;;;;3.35;2.60;;;;;;;5.96;55.97;94280.56;4974486;28;20033;-77
2023/02/20 03:27:55;;;;;;;3.75;2.63;;;;;;;5.80;55.73;94239.47;4972437;28;20065;-78
2023/02/20 03:30:26;;;;;;;4.90;2.78;;;;;;;6.02;56.06;94282.09;4971792;28;20035;-78
2023/02/20 03:44:23;;;;;;;5.68;3.08;;;;;;;5.85;55.38;94289.59;4973821;28;20052;-77
2023/02/20 03:46:51;;;;;;;3.75;3.30;;;;;;;6.10;55.05;94309.81;4964569;28;20038;-77
2023/02/20 03:49:28;;;;;;;3.65;2.45;;;;;;;6.05;54.69;94287.91;4976424;28;20080;-78
2023/02/20 03:51:56;;;;;;;3.75;2.30;;;;;;;6.14;54.32;94300.28;4976364;28;20026;-77
2023/02/20 03:54:22;;;;;;;2.70;2.10;;;;;;;5.91;54.72;94282.44;4976873;28;20050;-76
2023/02/20 03:56:52;;;;;;;3.17;2.38;;;;;;;5.91;54.74;94304.38;4974049;28;20047;-77
2023/02/20 03:59:20;;;;;;;3.13;1.75;;;;;;;5.84;54.73;94335.53;4975424;28;20129;-78
2023/02/20 04:01:50;;;;;;;3.30;2.33;;;;;;;5.64;54.62;94297.88;4975977;28;20049;-77
2023/02/20 04:04:22;;;;;;;2.85;2.08;;;;;;;5.81;54.59;94328.16;4976375;28;20023;-77
2023/02/20 04:06:49;;;;;;;3.00;2.33;;;;;;;5.87;54.61;94350.81;4976444;28;20037;-77
2023/02/20 04:09:21;;;;;;;3.03;2.28;;;;;;;5.71;54.35;94304.44;4977657;28;20058;-77
2023/02/20 04:11:51;;;;;;;2.30;2.05;;;;;;;5.93;54.08;94322.56;4976954;28;20053;-77
2023/02/20 04:14:20;;;;;;;2.22;1.98;;;;;;;5.91;53.63;94296.44;4976458;28;20077;-77
2023/02/20 04:16:53;;;;;;;2.97;2.58;;;;;;;5.98;54.11;94331.25;4976133;28;20042;-78
2023/02/20 04:19:18;;;;;;;4.03;2.47;;;;;;;5.89;54.44;94332.88;4978105;28;20542;-77
2023/02/20 04:21:50;;;;;;;3.30;2.38;;;;;;;5.85;54.04;94288.81;4975650;28;20022;-77
2023/02/20 04:24:21;;;;;;;3.85;2.50;;;;;;;5.86;54.52;94311.50;4967191;28;20072;-77
2023/02/20 04:26:47;;;;;;;5.20;3.08;;;;;;;5.81;55.14;94322.88;4976491;28;20037;-77
2023/02/20 04:29:12;;;;;;;3.15;2.50;;;;;;;5.83;54.72;94326.03;4974192;28;20042;-78
2023/02/20 04:31:38;;;;;;;3.63;2.45;;;;;;;5.68;54.71;94297.06;4976025;28;20469;-77
2023/02/20 04:34:03;;;;;;;4.07;2.35;;;;;;;5.97;54.56;94321.75;4975357;28;20027;-77
2023/02/20 04:36:29;;;;;;;3.00;2.38;;;;;;;5.81;54.56;94314.97;4977445;28;20617;-78
2023/02/20 04:38:54;;;;;;;2.75;2.55;;;;;;;6.04;54.20;94318.03;4973962;28;20029;-75
2023/02/20 04:41:19;;;;;;;2.58;2.17;;;;;;;6.23;53.89;94333.00;4975271;28;20081;-75
2023/02/20 04:43:46;;;;;;;3.15;2.53;;;;;;;5.99;53.36;94311.72;4975511;28;20045;-76
2023/02/20 04:46:11;;;;;;;2.10;1.88;;;;;;;6.09;53.42;94325.91;4975037;28;20410;-75
2023/02/20 04:48:36;;;;;;;4.57;2.63;;;;;;;5.94;52.80;94309.09;4975541;28;20025;-76
2023/02/20 04:51:02;;;;;;;3.42;2.40;;;;;;;5.89;52.28;94326.81;4975123;28;20494;-76
2023/02/20 04:53:27;;;;;;;3.70;1.95;;;;;;;5.92;52.43;94332.31;4974804;28;20135;-78
2023/02/20 04:55:53;;;;;;;3.47;2.03;;;;;;;5.76;52.62;94354.56;4973334;28;20627;-77
2023/02/20 04:58:18;;;;;;;2.95;2.40;;;;;;;5.43;52.78;94307.72;4973664;28;20363;-76
2023/02/20 05:00:43;;;;;;;2.83;2.50;;;;;;;5.69;52.71;94342.72;4974875;28;20501;-77
2023/02/20 05:03:09;;;;;;;4.07;2.25;;;;;;;5.58;52.61;94347.22;4976032;28;20047;-77
2023/02/20 05:05:34;;;;;;;3.78;2.65;;;;;;;5.43;52.51;94336.75;4973987;28;20026;-77
2023/02/20 05:08:02;;;;;;;2.88;2.20;;;;;;;5.46;52.88;94373.91;4975257;28;20030;-77
2023/02/20 05:10:30;;;;;;;3.63;2.25;;;;;;;5.54;52.28;94367.28;4975215;28;20095;-77
2023/02/20 05:12:57;;;;;;;2.08;1.80;;;;;;;5.57;52.14;94369.41;4976290;28;20081;-77
2023/02/20 05:15:24;;;;;;;3.40;2.05;;;;;;;5.55;51.50;94363.59;4969944;28;20038;-78
2023/02/20 05:17:49;;;;;;;2.97;2.25;;;;;;;5.51;50.97;94342.25;4975913;28;20286;-77
2023/02/20 05:20:16;;;;;;;45.63;29.85;;;;;;;5.47;51.64;94372.06;4969903;28;20490;-75
2023/02/20 05:22:44;;;;;;;109.32;60.15;;;;;;;5.36;52.06;94375.78;4974175;28;20382;-77
2023/02/20 05:25:10;;;;;;;114.30;57.13;;;;;;;5.43;52.19;94387.63;4971684;28;21254;-76
2023/02/20 05:27:35;;;;;;;80.47;36.63;;;;;;;5.43;52.19;94392.91;4977225;28;20096;-76
2023/02/20 05:30:02;;;;;;;101.65;45.45;;;;;;;5.35;52.37;94376.84;4974078;28;20495;-78
2023/02/20 05:32:28;;;;;;;50.25;25.60;;;;;;;5.33;52.77;94392.16;4990169;28;20035;-78
2023/02/20 05:34:54;;;;;;;192.90;88.38;;;;;;;5.34;53.16;94396.34;4965008;28;20093;-78
2023/02/20 05:37:21;;;;;;;165.88;79.38;;;;;;;5.21;53.37;94387.13;4971114;28;20038;-77
2023/02/20 05:39:46;;;;;;;53.88;27.48;;;;;;;5.18;53.62;94397.44;4970688;28;20076;-78
2023/02/20 05:42:12;;;;;;;128.18;59.88;;;;;;;5.22;53.81;94406.41;4971828;28;20038;-77
2023/02/20 05:44:38;;;;;;;111.55;50.50;;;;;;;5.21;53.69;94397.69;4973336;28;20035;-78
2023/02/20 05:47:04;;;;;;;231.93;106.50;;;;;;;5.38;53.75;94406.09;4971214;28;20085;-77
2023/02/20 05:49:29;;;;;;;96.97;41.63;;;;;;;5.24;53.19;94367.34;4973480;28;20031;-76
2023/02/20 05:51:56;;;;;;;38.50;19.73;;;;;;;5.45;53.29;94392.66;4974424;28;20063;-78
2023/02/20 05:54:21;;;;;;;32.55;17.25;;;;;;;5.60;52.75;94376.00;4971385;28;20459;-76
2023/02/20 05:56:47;;;;;;;124.55;63.13;;;;;;;5.96;51.60;94390.69;4966066;28;20737;-76
2023/02/20 05:59:16;;;;;;;67.70;34.78;;;;;;;6.06;49.81;94395.13;4968871;28;20038;-76
2023/02/20 06:01:42;;;;;;;54.40;28.30;;;;;;;5.88;49.43;94373.53;4966271;28;20042;-76
2023/02/20 06:04:07;;;;;;;5.10;3.45;;;;;;;5.82;48.56;94358.75;4971053;28;20470;-76
2023/02/20 06:06:38;;;;;;;5.03;3.92;;;;;;;5.87;48.31;94369.31;4966658;28;20082;-75
2023/02/20 06:09:14;;;;;;;3.47;2.60;;;;;;;5.88;47.89;94393.84;4959603;28;20069;-76
2023/02/20 06:11:39;;;;;;;3.95;2.72;;;;;;;5.55;48.37;94371.53;4969387;28;20085;-75
2023/02/20 06:14:05;;;;;;;13.55;8.13;;;;;;;5.82;47.82;94427.38;4972709;28;20041;-75
2023/02/20 06:16:33;;;;;;;18.90;9.80;;;;;;;5.98;48.61;94415.72;4968557;28;20484;-76
2023/02/20 06:18:59;;;;;;;8.73;5.53;;;;;;;6.09;48.19;94405.13;4973226;28;20079;-75
2023/02/20 06:21:25;;;;;;;4.60;4.10;;;;;;;6.17;48.25;94423.09;4970969;28;20114;-77
2023/02/20 06:23:53;;;;;;;9.43;5.68;;;;;;;6.10;47.59;94388.25;4970314;28;20380;-76
2023/02/20 06:26:19;;;;;;;7.18;3.58;;;;;;;6.15;47.68;94404.06;4971993;28;20033;-76
2023/02/20 06:28:48;;;;;;;7.93;3.33;;;;;;;6.17;47.09;94392.19;4972273;28;20038;-77
2023/02/20 06:31:20;;;;;;;4.10;3.08;;;;;;;6.07;47.04;94391.44;4969940;28;20034;-76
2023/02/20 06:33:45;;;;;;;5.10;3.63;;;;;;;5.96;47.80;94380.91;4972550;28;20029;-76
2023/02/20 06:36:19;;;;;;;6.28;4.05;;;;;;;6.08;47.82;94416.75;4974102;28;20092;-76
2023/02/20 06:38:44;;;;;;;5.55;3.90;;;;;;;6.02;47.28;94420.50;4973113;28;20349;-77
2023/02/20 06:41:10;;;;;;;4.30;3.70;;;;;;;5.89;47.76;94406.00;4973848;28;20523;-76
2023/02/20 06:43:35;;;;;;;7.38;4.38;;;;;;;6.05;47.51;94420.75;4970063;28;20064;-76
2023/02/20 06:46:00;;;;;;;5.13;3.50;;;;;;;6.22;47.90;94431.00;4975146;28;20420;-76
2023/02/20 06:48:26;;;;;;;5.95;3.83;;;;;;;6.29;48.02;94452.63;4969947;28;20038;-76
2023/02/20 06:50:54;;;;;;;6.95;4.25;;;;;;;6.10;48.28;94427.84;4972179;28;20042;-76
2023/02/20 06:53:19;;;;;;;5.28;3.70;;;;;;;6.27;48.43;94429.13;4971259;28;20031;-76
2023/02/20 06:55:45;;;;;;;5.28;3.75;;;;;;;6.16;48.45;94424.16;4970575;28;20407;-77
2023/02/20 06:58:10;;;;;;;5.25;3.80;;;;;;;6.27;48.24;94433.63;5004729;28;20088;-77
2023/02/20 07:00:35;;;;;;;5.38;4.22;;;;;;;6.36;47.84;94442.59;4960568;28;20076;-77
2023/02/20 07:03:01;;;;;;;4.13;3.10;;;;;;;5.94;47.46;94429.75;4971846;28;20074;-77
2023/02/20 07:05:28;;;;;;;5.68;2.38;;;;;;;5.82;47.51;94416.84;4968395;28;20133;-77
2023/02/20 07:07:53;;;;;;;6.95;4.95;;;;;;;5.70;47.89;94434.03;4970045;28;20634;-77
2023/02/20 07:10:19;;;;;;;4.13;3.47;;;;;;;5.94;48.39;94456.16;4993432;28;21215;-78
2023/02/20 07:12:44;;;;;;;8.15;4.65;;;;;;;6.05;47.98;94441.06;5003266;28;20026;-78
2023/02/20 07:15:11;;;;;;;3.88;3.45;;;;;;;6.24;47.23;94463.22;4967444;28;20121;-78
2023/02/20 07:17:44;;;;;;;5.90;3.30;;;;;;;6.07;46.98;94444.25;4971546;28;20038;-77
2023/02/20 07:20:13;;;;;;;7.03;4.10;;;;;;;6.13;46.92;94416.75;4972005;28;20678;-77
2023/02/20 07:22:38;;;;;;;3.40;2.80;;;;;;;6.43;45.69;94472.13;4976266;28;20038;-77
2023/02/20 07:25:04;;;;;;;3.45;2.55;;;;;;;6.48;46.31;94466.81;4974972;28;20030;-78
2023/02/20 07:27:30;;;;;;;4.38;3.03;;;;;;;6.50;46.11;94461.28;4973028;28;20038;-77
2023/02/20 07:29:58;;;;;;;3.08;2.70;;;;;;;6.65;45.79;94472.53;4974102;28;20605;-77
2023/02/20 07:32:24;;;;;;;3.75;2.85;;;;;;;6.14;45.98;94397.19;4969762;28;20495;-77
2023/02/20 07:34:49;;;;;;;2.80;2.10;;;;;;;6.29;44.75;94426.22;4974237;28;20469;-77
2023/02/20 07:37:15;;;;;;;3.15;2.22;;;;;;;6.50;45.02;94464.72;4974390;28;20026;-77
2023/02/20 07:39:41;;;;;;;3.33;2.45;;;;;;;6.59;45.05;94468.38;4974053;28;20042;-77
2023/02/20 07:42:06;;;;;;;2.72;2.30;;;;;;;6.41;45.44;94439.88;5001356;28;20150;-77
2023/02/20 07:44:32;;;;;;;3.35;2.40;;;;;;;6.51;43.99;94462.84;4975039;28;20060;-77
2023/02/20 07:46:57;;;;;;;4.30;1.83;;;;;;;6.36;43.68;94453.16;5003867;28;20045;-79
2023/02/20 07:49:23;;;;;;;3.58;2.83;;;;;;;6.48;43.40;94472.09;4972747;28;20135;-78
2023/02/20 07:51:48;;;;;;;2.97;2.03;;;;;;;6.52;42.77;94486.34;4971887;28;20021;-77
2023/02/20 07:54:16;;;;;;;1.73;1.50;;;;;;;6.47;42.36;94485.59;4963236;28;20450;-78
2023/02/20 07:56:42;;;;;;;3.08;1.20;;;;;;;6.35;42.07;94468.22;5002502;28;20038;-77
2023/02/20 07:59:08;;;;;;;2.10;1.13;;;;;;;5.89;42.20;94454.31;4973109;28;20035;-75
2023/02/20 08:01:34;;;;;;;3.72;1.33;;;;;;;6.15;42.23;94472.72;4972632;28;20077;-76
2023/02/20 08:03:59;;;;;;;1.52;1.10;;;;;;;6.28;42.03;94472.19;4976900;28;20117;-76
2023/02/20 08:06:25;;;;;;;2.03;1.00;;;;;;;6.48;41.19;94492.47;4974020;28;20042;-77
2023/02/20 08:08:51;;;;;;;2.15;1.25;;;;;;;6.43;41.46;94474.78;4972919;28;20050;-77
2023/02/20 08:11:18;;;;;;;1.30;1.10;;;;;;;6.41;41.54;94482.16;4974149;28;20121;-77
2023/02/20 08:13:44;;;;;;;1.75;0.90;;;;;;;6.57;41.01;94486.34;4974823;28;20060;-76
2023/02/20 08:16:10;;;;;;;2.25;0.90;;;;;;;6.54;41.31;94486.88;4975883;28;20034;-77
2023/02/20 08:18:35;;;;;;;1.20;1.00;;;;;;;6.44;41.68;94481.66;4970841;28;20034;-77
2023/02/20 08:21:00;;;;;;;6.93;1.00;;;;;;;6.40;41.59;94480.59;4977511;28;20043;-76
2023/02/20 08:23:29;;;;;;;0.90;0.90;;;;;;;6.38;41.60;94446.53;4970403;28;20472;-76
2023/02/20 08:25:54;;;;;;;3.78;1.00;;;;;;;6.59;41.54;94504.56;4974475;28;20034;-77
2023/02/20 08:28:20;;;;;;;1.30;1.20;;;;;;;6.77;40.90;94502.09;4970544;28;20030;-76
2023/02/20 08:30:46;;;;;;;2.92;1.40;;;;;;;6.80;41.18;94516.63;4971016;28;20022;-76
2023/02/20 08:33:14;;;;;;;3.28;0.90;;;;;;;6.65;42.13;94520.13;4974366;28;20097;-75
2023/02/20 08:35:40;;;;;;;8.38;1.42;;;;;;;6.73;42.29;94521.44;4969791;28;20569;-76
2023/02/20 08:38:22;;;;;;;10.07;2.30;;;;;;;6.82;42.54;94503.94;4971988;28;20038;-77
2023/02/20 08:40:47;;;;;;;3.00;1.55;;;;;;;6.93;41.82;94484.31;4972174;28;20057;-77
2023/02/20 08:43:13;;;;;;;1.05;0.88;;;;;;;7.08;41.29;94502.75;4973161;28;20026;-77
2023/02/20 08:45:41;;;;;;;1.52;1.08;;;;;;;7.04;40.78;94501.72;4974419;28;20737;-78
2023/02/20 08:48:09;;;;;;;2.08;1.52;;;;;;;6.98;40.93;94491.44;4972865;28;20117;-77
2023/02/20 08:50:35;;;;;;;3.22;0.73;;;;;;;7.08;40.66;94494.00;4974724;28;20041;-76
2023/02/20 08:53:01;;;;;;;1.70;1.05;;;;;;;6.78;39.94;94468.53;4974816;28;20034;-77
2023/02/20 08:55:26;;;;;;;1.85;1.08;;;;;;;6.95;40.15;94510.47;4972363;28;20048;-75
2023/02/20 08:58:10;;;;;;;2.47;0.90;;;;;;;7.03;40.17;94507.25;4972695;28;20502;-76
2023/02/20 09:00:35;;;;;;;0.73;0.70;;;;;;;6.96;40.24;94517.34;4989961;28;20050;-77
2023/02/20 09:03:03;;;;;;;0.85;0.70;;;;;;;6.71;39.79;94473.31;4975128;28;20686;-76
2023/02/20 09:05:29;;;;;;;3.20;0.90;;;;;;;6.71;40.48;94511.13;4976001;28;20053;-77
2023/02/20 09:07:54;;;;;;;1.00;0.70;;;;;;;6.90;40.85;94510.53;5002902;28;20031;-76
2023/02/20 09:10:20;;;;;;;1.58;0.80;;;;;;;6.96;40.91;94496.19;4975635;28;20031;-77
2023/02/20 09:12:49;;;;;;;0.88;0.88;;;;;;;7.01;40.98;94512.81;4972806;28;20033;-77
2023/02/20 09:15:16;;;;;;;1.63;0.80;;;;;;;7.12;40.59;94505.63;4997635;28;20394;-77
2023/02/20 09:17:44;;;;;;;1.95;0.80;;;;;;;6.92;40.88;94479.28;4975880;28;20039;-76
2023/02/20 09:20:11;;;;;;;0.88;0.60;;;;;;;7.18;41.50;94496.59;4970107;28;20135;-78
2023/02/20 09:22:36;;;;;;;1.90;0.80;;;;;;;6.80;41.54;94479.59;4973997;28;20035;-77
2023/02/20 09:25:06;;;;;;;0.80;0.70;;;;;;;6.70;41.56;94459.31;4976038;28;20030;-76
2023/02/20 09:27:32;;;;;;;0.75;0.70;;;;;;;6.93;41.83;94486.16;4971967;28;20537;-78
2023/02/20 09:29:57;;;;;;;0.88;0.60;;;;;;;6.84;41.75;94473.53;4973555;28;20038;-77
2023/02/20 09:32:23;;;;;;;0.70;0.70;;;;;;;6.95;42.03;94499.88;4972863;28;20412;-77
2023/02/20 09:34:48;;;;;;;2.10;0.70;;;;;;;6.94;41.98;94516.84;4970010;28;20049;-77
2023/02/20 09:37:14;;;;;;;1.00;0.80;;;;;;;6.96;42.28;94496.97;4971988;28;20117;-77
2023/02/20 09:39:39;;;;;;;1.10;0.80;;;;;;;6.98;42.33;94472.91;4972621;28;20042;-76
2023/02/20 09:42:40;;;;;;;0.70;0.70;;;;;;;7.22;42.09;94502.91;4972991;28;20158;-79
2023/02/20 09:45:17;;;;;;;1.95;0.80;;;;;;;7.30;41.80;94499.66;4979510;28;20706;-76
2023/02/20 09:48:04;;;;;;;1.15;0.70;;;;;;;7.35;41.77;94502.28;4972958;28;20251;-77
2023/02/20 09:50:38;;;;;;;1.00;0.75;;;;;;;7.21;41.43;94511.91;4970532;28;20125;-77
2023/02/20 09:53:14;;;;;;;1.85;1.05;;;;;;;7.18;41.62;94496.59;4972695;28;20046;-77
2023/02/20 09:55:40;;;;;;;2.28;0.75;;;;;;;7.43;41.39;94492.97;4972887;28;20220;-77
2023/02/20 09:58:10;;;;;;;0.73;0.70;;;;;;;7.52;40.69;94502.69;4973767;28;20029;-76
2023/02/20 10:00:37;;;;;;;4.20;0.90;;;;;;;7.73;40.64;94520.00;4974038;28;20034;-77
2023/02/20 10:03:05;;;;;;;0.70;0.70;;;;;;;7.86;39.63;94502.72;4975663;28;20035;-77
2023/02/20 10:05:31;;;;;;;1.98;0.65;;;;;;;7.89;38.18;94517.22;4972059;28;20089;-77
2023/02/20 10:07:57;;;;;;;8.00;1.75;;;;;;;7.62;38.10;94515.84;4972220;28;20031;-77
2023/02/20 10:10:25;;;;;;;0.73;0.70;;;;;;;7.54;36.78;94519.06;4974516;28;20531;-78
2023/02/20 10:13:06;;;;;;;3.63;0.93;;;;;;;7.50;37.23;94506.69;4969075;28;20027;-78
2023/02/20 10:16:00;;;;;;;1.38;0.77;;;;;;;7.52;37.41;94501.91;4972079;28;20042;-76
2023/02/20 10:18:51;;;;;;;0.95;0.70;;;;;;;7.54;36.98;94495.25;4970826;28;20433;-76
2023/02/20 10:21:38;;;;;;;3.03;1.48;;;;;;;7.46;36.83;94472.03;4969326;28;20077;-77
2023/02/20 10:24:07;;;;;;;2.97;1.10;;;;;;;7.80;36.87;94492.44;4967346;28;20057;-77
2023/02/20 10:26:36;;;;;;;0.93;0.77;;;;;;;7.82;36.56;94485.00;4970333;28;20045;-78
2023/02/20 10:29:16;;;;;;;2.38;1.20;;;;;;;7.82;36.19;94443.44;4971186;28;20121;-77
2023/02/20 10:31:59;;;;;;;1.15;0.90;;;;;;;8.15;35.67;94471.69;4971675;28;20032;-78
2023/02/20 10:34:36;;;;;;;1.45;1.23;;;;;;;8.04;35.78;94440.28;4999933;28;20040;-77
2023/02/20 10:37:11;;;;;;;1.33;0.98;;;;;;;7.95;35.45;94404.88;4971496;28;20041;-76
2023/02/20 10:39:40;;;;;;;1.80;1.00;;;;;;;7.77;35.30;94402.97;4967899;28;20054;-78
2023/02/20 10:42:12;;;;;;;0.82;0.75;;;;;;;8.12;34.88;94466.13;4970617;28;20070;-78
2023/02/20 10:44:52;;;;;;;0.98;0.85;;;;;;;7.18;35.29;94322.78;4970841;28;20038;-78
2023/02/20 10:47:30;;;;;;;2.13;0.73;;;;;;;8.27;34.93;94460.69;4968843;28;20485;-77
2023/02/20 10:50:01;;;;;;;5.03;0.93;;;;;;;8.30;35.41;94470.72;4968107;28;20042;-78
2023/02/20 10:52:35;;;;;;;4.97;2.55;;;;;;;8.07;35.06;94415.88;4968921;28;20540;-78
2023/02/20 10:55:18;;;;;;;1.00;0.90;;;;;;;8.17;35.23;94417.63;4973892;28;20030;-78
2023/02/20 10:58:04;;;;;;;2.15;0.70;;;;;;;8.41;35.87;94472.16;4971904;28;20045;-78
2023/02/20 11:00:38;;;;;;;0.95;0.80;;;;;;;8.52;35.66;94460.38;4969806;28;20376;-78
2023/02/20 11:03:16;;;;;;;0.77;0.77;;;;;;;8.40;35.55;94438.81;4968103;28;20359;-77
2023/02/20 11:05:53;;;;;;;1.13;0.90;;;;;;;8.44;35.80;94436.38;4973865;28;20033;-77
2023/02/20 11:08:20;;;;;;;1.02;0.70;;;;;;;8.72;35.85;94448.72;4971480;28;20415;-77
2023/02/20 11:10:54;;;;;;;0.80;0.70;;;;;;;8.74;35.84;94443.16;4964215;28;20077;-77
2023/02/20 11:13:24;;;;;;;1.10;1.00;;;;;;;8.48;36.15;94387.81;4962479;28;20084;-78
2023/02/20 11:15:55;;;;;;;1.23;0.82;;;;;;;8.81;36.06;94422.34;4973210;28;20036;-77
2023/02/20 11:18:37;;;;;;;1.08;0.88;;;;;;;8.80;35.80;94408.31;4964986;28;20148;-78
2023/02/20 11:21:03;;;;;;;6.18;0.88;;;;;;;8.76;35.71;94425.06;4993220;28;20069;-77
2023/02/20 11:23:42;;;;;;;0.80;0.80;;;;;;;8.63;36.42;94425.78;4972775;28;20126;-77
2023/02/20 11:26:20;;;;;;;3.13;0.80;;;;;;;8.64;36.82;94428.16;4972852;28;20035;-79
2023/02/20 11:29:15;;;;;;;0.63;0.63;;;;;;;8.83;36.37;94414.91;4971315;28;20116;-78
2023/02/20 11:31:42;;;;;;;0.70;0.70;;;;;;;8.79;35.73;94398.78;4969889;28;20076;-78
2023/02/20 11:34:16;;;;;;;0.70;0.68;;;;;;;8.83;36.44;94407.75;4971874;28;20034;-78
2023/02/20 11:36:52;;;;;;;1.17;1.08;;;;;;;8.42;36.58;94382.84;4968665;28;20077;-77
2023/02/20 11:39:36;;;;;;;1.67;1.02;;;;;;;8.16;36.51;94347.94;4968885;28;20077;-77
2023/02/20 11:42:15;;;;;;;1.80;0.70;;;;;;;8.32;35.98;94357.25;4966523;28;20816;-78
2023/02/20 11:44:47;;;;;;;1.13;0.90;;;;;;;8.53;36.01;94386.94;4986409;28;20223;-78
2023/02/20 11:47:27;;;;;;;1.05;0.80;;;;;;;8.70;36.05;94416.41;4974155;28;20039;-78
2023/02/20 11:50:12;;;;;;;1.65;0.70;;;;;;;8.62;36.06;94419.69;4970329;28;20038;-77
2023/02/20 11:52:54;;;;;;;1.70;0.90;;;;;;;8.68;36.04;94415.13;4970858;28;20038;-77
2023/02/20 11:55:23;;;;;;;1.98;0.65;;;;;;;8.76;35.92;94402.00;4979187;28;20033;-78
2023/02/20 11:57:50;;;;;;;0.70;0.70;;;;;;;8.99;35.95;94406.44;4969839;28;20030;-77
2023/02/20 12:00:19;;;;;;;3.00;1.20;;;;;;;8.93;35.74;94393.53;4970257;28;20297;-77
2023/02/20 12:03:07;;;;;;;2.35;0.70;;;;;;;8.97;35.00;94376.75;4969708;28;20057;-77